Time;durP1;ratioP1;P1;durP2;ratioP2;P2;SDS_P1;SDS_P2;PMS_P1;PMS_P2;Temp;Humidity;BMP_temperature;BMP_pressure;BME280_temperature;BME280_humidity;BME280_pressure;Samples;Min_cycle;Max_cycle;Signal;HPM_P1;HPM_P2
2023/12/04 00:00:33;;;;;;;31.80;20.70;;;;;;;-1.45;86.17;100409.33;101710;1254;1016357;-67
2023/12/04 00:03:20;;;;;;;30.90;21.00;;;;;;;-1.43;86.22;100409.91;102560;1254;1015960;-66
2023/12/04 00:05:47;;;;;;;33.40;21.50;;;;;;;-1.47;86.01;100408.61;102310;1255;1002949;-66
2023/12/04 00:08:14;;;;;;;29.60;20.00;;;;;;;-1.52;86.16;100408.52;102561;1255;1002600;-67
2023/12/04 00:10:41;;;;;;;30.80;19.50;;;;;;;-1.57;86.33;100410.31;103238;1260;107080;-66
2023/12/04 00:13:07;;;;;;;32.70;20.10;;;;;;;-1.58;86.59;100408.43;102388;1254;1003400;-67
2023/12/04 00:15:34;;;;;;;27.60;18.70;;;;;;;-1.57;86.64;100414.91;102549;1254;1003699;-66
2023/12/04 00:18:01;;;;;;;31.90;19.30;;;;;;;-1.58;86.80;100416.10;103127;1257;139815;-66
2023/12/04 00:20:28;;;;;;;26.90;18.20;;;;;;;-1.59;87.04;100417.28;102538;1260;1003176;-66
2023/12/04 00:22:55;;;;;;;29.40;19.50;;;;;;;-1.59;87.02;100415.75;103284;1258;107372;-65
2023/12/04 00:25:22;;;;;;;27.80;19.80;;;;;;;-1.58;87.08;100416.61;103185;1257;138222;-65
2023/12/04 00:27:49;;;;;;;32.20;20.50;;;;;;;-1.59;87.24;100417.27;103278;1260;110093;-65
2023/12/04 00:30:16;;;;;;;34.40;23.10;;;;;;;-1.55;87.11;100426.05;101726;1254;1002959;-67
2023/12/04 00:32:43;;;;;;;31.10;21.80;;;;;;;-1.55;87.34;100426.56;103320;1254;96482;-67
2023/12/04 00:35:11;;;;;;;34.60;23.00;;;;;;;-1.55;87.16;100424.34;103368;1258;108088;-68
2023/12/04 00:37:38;;;;;;;33.50;21.60;;;;;;;-1.60;87.20;100428.50;103441;1260;138161;-67
2023/12/04 00:40:07;;;;;;;33.00;20.20;;;;;;;-1.64;87.37;100432.33;103333;1254;110404;-66
2023/12/04 00:42:33;;;;;;;30.00;20.00;;;;;;;-1.64;87.58;100433.17;103379;1254;139702;-67
2023/12/04 00:45:00;;;;;;;31.20;21.00;;;;;;;-1.64;87.55;100436.25;103328;1260;96929;-66
2023/12/04 00:47:27;;;;;;;31.10;19.40;;;;;;;-1.64;87.81;100432.49;103111;1254;139615;-67
2023/12/04 00:49:55;;;;;;;34.00;22.60;;;;;;;-1.61;88.07;100435.63;103370;1254;96338;-64
2023/12/04 00:52:22;;;;;;;30.90;22.60;;;;;;;-1.59;87.93;100438.41;102634;1254;1003406;-66
2023/12/04 00:54:49;;;;;;;32.80;23.00;;;;;;;-1.54;87.99;100438.16;103278;1254;138096;-68
2023/12/04 00:57:16;;;;;;;35.00;23.70;;;;;;;-1.50;88.01;100438.41;102745;1254;1002708;-67
2023/12/04 00:59:43;;;;;;;40.00;25.50;;;;;;;-1.49;87.82;100439.11;103362;1254;1002348;-67
2023/12/04 01:02:10;;;;;;;34.00;23.40;;;;;;;-1.50;87.59;100441.13;103004;1254;1003354;-65
2023/12/04 01:04:37;;;;;;;32.20;22.20;;;;;;;-1.53;87.70;100445.86;103568;1259;109604;-67
2023/12/04 01:07:04;;;;;;;31.10;20.90;;;;;;;-1.52;87.83;100447.07;102759;1257;1003589;-66
2023/12/04 01:09:31;;;;;;;30.40;20.80;;;;;;;-1.50;87.77;100453.23;103977;1254;96160;-64
2023/12/04 01:11:58;;;;;;;30.00;20.20;;;;;;;-1.48;87.98;100450.20;103988;1254;138721;-66
2023/12/04 01:14:25;;;;;;;28.80;19.90;;;;;;;-1.46;87.95;100450.58;103372;1254;96459;-65
2023/12/04 01:16:51;;;;;;;25.60;18.50;;;;;;;-1.43;87.96;100452.38;102522;1254;1002993;-67
2023/12/04 01:19:18;;;;;;;29.10;19.90;;;;;;;-1.38;87.97;100450.42;103187;1254;138490;-67
2023/12/04 01:21:45;;;;;;;28.20;20.20;;;;;;;-1.37;87.78;100450.27;103380;1254;96449;-66
2023/12/04 01:24:12;;;;;;;33.10;22.30;;;;;;;-1.39;87.88;100442.39;103232;1260;137748;-66
2023/12/04 01:26:39;;;;;;;32.10;21.30;;;;;;;-1.32;87.83;100450.86;101789;1258;1003264;-66
2023/12/04 01:29:06;;;;;;;30.90;22.20;;;;;;;-1.32;87.47;100453.08;103328;1260;110459;-66
2023/12/04 01:31:33;;;;;;;29.80;20.40;;;;;;;-1.36;87.61;100454.05;102376;1254;1139625;-66
2023/12/04 01:34:00;;;;;;;25.90;19.10;;;;;;;-1.39;87.35;100456.20;102462;1254;1002876;-65
2023/12/04 01:36:27;;;;;;;26.70;18.30;;;;;;;-1.40;87.79;100453.97;103145;1257;138812;-65
2023/12/04 01:38:54;;;;;;;25.20;16.40;;;;;;;-1.38;87.43;100465.26;103218;1254;96642;-65
2023/12/04 01:41:20;;;;;;;23.80;16.40;;;;;;;-1.38;87.67;100463.38;103301;1254;109301;-66
2023/12/04 01:43:47;;;;;;;22.30;15.70;;;;;;;-1.35;87.53;100463.77;103303;1257;107553;-66
2023/12/04 01:46:18;;;;;;;24.50;16.80;;;;;;;-1.34;87.53;100459.02;103325;1254;96634;-66
2023/12/04 01:48:47;;;;;;;21.50;16.70;;;;;;;-1.32;87.24;100456.65;103315;1257;138697;-66
2023/12/04 01:51:15;;;;;;;23.30;17.10;;;;;;;-1.29;87.30;100459.97;102215;1254;1002927;-66
2023/12/04 01:53:43;;;;;;;24.40;17.80;;;;;;;-1.29;87.03;100472.41;103575;1258;138179;-66
2023/12/04 01:56:12;;;;;;;24.40;18.00;;;;;;;-1.28;87.22;100480.61;103276;1260;107418;-67
2023/12/04 01:58:39;;;;;;;22.50;15.30;;;;;;;-1.32;86.90;100481.22;104002;1254;96455;-66
2023/12/04 02:01:08;;;;;;;21.50;13.80;;;;;;;-1.38;86.55;100483.85;103656;1254;138630;-66
2023/12/04 02:03:36;;;;;;;20.30;14.10;;;;;;;-1.43;86.19;100498.59;103560;1259;96451;-66
2023/12/04 02:06:05;;;;;;;18.70;13.20;;;;;;;-1.45;86.43;100499.71;103162;1258;141085;-66
2023/12/04 02:08:32;;;;;;;17.80;13.00;;;;;;;-1.45;86.37;100504.15;103050;1254;1002991;-66
2023/12/04 02:10:59;;;;;;;19.70;13.20;;;;;;;-1.48;85.63;100506.49;103336;1259;96427;-66
2023/12/04 02:13:27;;;;;;;19.10;14.20;;;;;;;-1.55;85.51;100496.64;103752;1253;137778;-65
2023/12/04 02:15:58;;;;;;;21.20;14.90;;;;;;;-1.56;85.43;100494.56;103686;1254;96484;-66
2023/12/04 02:18:25;;;;;;;22.70;15.10;;;;;;;-1.57;85.53;100501.54;103730;1254;137901;-66
2023/12/04 02:20:54;;;;;;;26.50;16.80;;;;;;;-1.62;85.37;100497.67;104416;1254;107823;-66
2023/12/04 02:23:20;;;;;;;23.00;15.90;;;;;;;-1.66;85.43;100496.55;103059;1254;1003638;-66
2023/12/04 02:25:47;;;;;;;20.20;14.80;;;;;;;-1.74;85.12;100497.09;102822;1257;1003479;-66
2023/12/04 02:28:18;;;;;;;22.80;15.30;;;;;;;-1.84;85.02;100495.84;102990;1254;1002982;-66
2023/12/04 02:30:46;;;;;;;18.20;13.80;;;;;;;-1.92;85.59;100497.70;103739;1254;139087;-66
2023/12/04 02:33:14;;;;;;;20.60;13.10;;;;;;;-1.92;85.51;100500.95;102529;1256;1002997;-66
2023/12/04 02:35:43;;;;;;;17.40;12.00;;;;;;;-1.93;85.33;100501.80;103300;1254;138844;-65
2023/12/04 02:38:10;;;;;;;17.70;12.40;;;;;;;-1.94;85.36;100500.58;102531;1259;1002639;-65
2023/12/04 02:40:37;;;;;;;17.60;12.50;;;;;;;-1.95;85.14;100502.60;103404;1257;96559;-65
2023/12/04 02:43:04;;;;;;;17.20;12.40;;;;;;;-1.94;85.29;100503.99;103738;1254;138223;-65
2023/12/04 02:45:31;;;;;;;19.90;13.50;;;;;;;-1.94;85.13;100503.64;103546;1254;107612;-65
2023/12/04 02:47:58;;;;;;;17.00;12.40;;;;;;;-1.95;85.19;100501.23;102550;1257;1003304;-65
2023/12/04 02:50:26;;;;;;;18.20;13.00;;;;;;;-1.97;85.00;100503.58;103143;1257;1003440;-65
2023/12/04 02:52:53;;;;;;;17.30;12.40;;;;;;;-1.99;85.20;100506.59;103893;1254;1002391;-65
2023/12/04 02:55:19;;;;;;;17.60;12.10;;;;;;;-2.02;85.05;100507.52;103257;1254;139715;-65
2023/12/04 02:57:46;;;;;;;18.20;12.20;;;;;;;-2.03;85.17;100514.66;103281;1259;107486;-64
2023/12/04 03:00:15;;;;;;;17.20;11.20;;;;;;;-2.04;85.12;100515.66;103237;1257;138522;-65
2023/12/04 03:02:41;;;;;;;16.60;10.90;;;;;;;-2.04;85.20;100515.50;103880;1254;1002582;-66
2023/12/04 03:05:09;;;;;;;16.80;12.40;;;;;;;-2.04;85.26;100517.38;103322;1258;96662;-68
2023/12/04 03:07:36;;;;;;;18.20;12.80;;;;;;;-2.00;85.52;100518.16;103314;1254;137419;-66
2023/12/04 03:10:03;;;;;;;21.10;12.90;;;;;;;-1.96;85.41;100514.52;102579;1254;1004193;-66
2023/12/04 03:12:30;;;;;;;18.40;13.90;;;;;;;-1.92;85.11;100524.82;103230;1259;138877;-67
2023/12/04 03:14:57;;;;;;;21.00;15.10;;;;;;;-1.96;85.05;100526.09;103306;1257;108088;-65
2023/12/04 03:17:24;;;;;;;20.60;15.40;;;;;;;-2.00;84.93;100526.49;103312;1254;97798;-66
2023/12/04 03:19:51;;;;;;;19.00;14.30;;;;;;;-2.03;85.23;100531.70;103300;1259;111403;-65
2023/12/04 03:22:18;;;;;;;19.60;14.00;;;;;;;-2.06;85.27;100526.01;103259;1254;108300;-66
2023/12/04 03:24:45;;;;;;;18.40;13.20;;;;;;;-2.06;85.45;100525.17;103179;1254;138801;-66
2023/12/04 03:27:12;;;;;;;17.40;12.70;;;;;;;-2.06;85.47;100527.91;103133;1256;108201;-67
2023/12/04 03:29:39;;;;;;;18.20;12.70;;;;;;;-2.03;85.75;100532.55;102458;1254;1002722;-66
2023/12/04 03:32:06;;;;;;;20.50;14.60;;;;;;;-1.98;85.24;100537.61;103263;1258;110745;-66
2023/12/04 03:34:33;;;;;;;22.90;14.90;;;;;;;-1.93;85.55;100535.35;102984;1254;1002572;-67
2023/12/04 03:37:00;;;;;;;22.00;15.30;;;;;;;-1.91;85.36;100536.93;103190;1254;138128;-65
2023/12/04 03:39:27;;;;;;;21.40;15.70;;;;;;;-1.92;85.16;100539.64;102562;1254;1003161;-67
2023/12/04 03:41:54;;;;;;;22.20;15.60;;;;;;;-1.94;85.17;100542.65;102420;1254;1003120;-65
2023/12/04 03:44:20;;;;;;;21.60;15.70;;;;;;;-1.99;85.22;100547.48;103328;1254;111471;-67
2023/12/04 03:46:47;;;;;;;23.10;15.10;;;;;;;-2.03;85.20;100552.67;103335;1254;107351;-67
2023/12/04 03:49:14;;;;;;;19.30;13.70;;;;;;;-2.05;85.28;100547.16;103288;1254;138733;-66
2023/12/04 03:51:41;;;;;;;19.40;14.20;;;;;;;-2.05;85.23;100549.73;103295;1254;108625;-66
2023/12/04 03:54:08;;;;;;;17.50;12.60;;;;;;;-2.06;85.25;100551.06;103470;1254;138808;-67
2023/12/04 03:56:35;;;;;;;20.40;14.00;;;;;;;-2.07;85.08;100551.72;103291;1258;110883;-66
2023/12/04 03:59:02;;;;;;;23.40;15.50;;;;;;;-2.09;85.05;100549.13;103306;1254;108442;-66
2023/12/04 04:01:28;;;;;;;21.90;15.60;;;;;;;-2.10;85.21;100549.45;103186;1254;138310;-65
2023/12/04 04:03:56;;;;;;;23.30;16.00;;;;;;;-2.09;84.92;100553.22;102570;1254;1003241;-67
2023/12/04 04:06:23;;;;;;;23.90;15.90;;;;;;;-2.16;84.89;100551.69;103284;1259;138862;-66
2023/12/04 04:08:50;;;;;;;24.40;17.70;;;;;;;-2.21;84.93;100557.17;103206;1254;113490;-66
2023/12/04 04:11:17;;;;;;;24.20;17.00;;;;;;;-2.28;85.08;100557.02;102572;1254;1003612;-66
2023/12/04 04:13:44;;;;;;;23.60;15.50;;;;;;;-2.32;85.08;100557.77;102488;1255;1003063;-66
2023/12/04 04:16:16;;;;;;;23.00;15.80;;;;;;;-2.34;85.28;100557.86;102579;1254;1003327;-66
2023/12/04 04:18:43;;;;;;;23.60;16.20;;;;;;;-2.37;85.55;100558.81;102447;1254;1004975;-66
2023/12/04 04:21:11;;;;;;;22.90;15.00;;;;;;;-2.37;85.45;100554.55;103315;1254;111790;-65
2023/12/04 04:23:38;;;;;;;21.70;15.40;;;;;;;-2.36;85.25;100554.58;103234;1254;140382;-66
2023/12/04 04:26:06;;;;;;;24.80;15.40;;;;;;;-2.36;85.28;100555.10;103353;1254;98331;-64
2023/12/04 04:28:32;;;;;;;24.80;16.70;;;;;;;-2.34;85.29;100555.12;103584;1255;106973;-65
2023/12/04 04:30:59;;;;;;;25.00;16.00;;;;;;;-2.32;85.18;100557.94;102453;1254;1002801;-64
2023/12/04 04:33:26;;;;;;;26.60;18.70;;;;;;;-2.34;84.97;100549.89;103292;1253;111329;-64
2023/12/04 04:35:53;;;;;;;26.00;18.20;;;;;;;-2.30;85.16;100550.98;102408;1259;1003519;-65
2023/12/04 04:38:20;;;;;;;26.80;18.70;;;;;;;-2.35;84.87;100551.88;103325;1254;98323;-66
2023/12/04 04:40:47;;;;;;;27.70;19.80;;;;;;;-2.39;85.06;100556.05;103322;1254;108494;-66
2023/12/04 04:43:14;;;;;;;25.40;17.50;;;;;;;-2.41;85.21;100559.91;103148;1254;139615;-66
2023/12/04 04:45:41;;;;;;;25.40;17.50;;;;;;;-2.44;85.20;100563.59;103331;1254;111916;-65
2023/12/04 04:48:08;;;;;;;25.60;17.00;;;;;;;-2.46;84.86;100564.23;103177;1254;138816;-65
2023/12/04 04:50:35;;;;;;;22.90;15.50;;;;;;;-2.50;85.18;100567.55;103501;1254;99503;-66
2023/12/04 04:53:02;;;;;;;22.80;15.70;;;;;;;-2.51;85.16;100562.73;103293;1258;107464;-66
2023/12/04 04:55:30;;;;;;;22.70;16.10;;;;;;;-2.47;85.47;100566.25;103289;1254;139302;-66
2023/12/04 04:58:14;;;;;;;24.30;15.10;;;;;;;-2.42;85.30;100568.90;103326;1254;111820;-66
2023/12/04 05:00:41;;;;;;;25.50;16.70;;;;;;;-2.39;85.36;100573.92;103236;1258;138337;-65
2023/12/04 05:03:08;;;;;;;26.00;17.60;;;;;;;-2.37;85.37;100571.92;103235;1258;98321;-66
2023/12/04 05:05:35;;;;;;;24.70;17.10;;;;;;;-2.33;85.21;100568.64;103201;1259;138143;-66
2023/12/04 05:08:02;;;;;;;25.00;18.00;;;;;;;-2.34;85.23;100568.77;103317;1254;97764;-66
2023/12/04 05:10:28;;;;;;;28.40;18.30;;;;;;;-2.34;85.15;100568.07;103323;1254;112216;-66
2023/12/04 05:12:56;;;;;;;26.80;19.30;;;;;;;-2.36;85.31;100572.97;102447;1254;1002862;-65
2023/12/04 05:15:23;;;;;;;25.90;18.00;;;;;;;-2.39;84.87;100576.64;102584;1254;1003712;-65
2023/12/04 05:17:51;;;;;;;25.00;17.30;;;;;;;-2.43;85.02;100578.95;103170;1259;139497;-64
2023/12/04 05:20:18;;;;;;;25.40;17.20;;;;;;;-2.45;84.92;100581.80;102569;1254;1002920;-64
2023/12/04 05:22:45;;;;;;;23.20;16.30;;;;;;;-2.43;85.20;100585.74;102572;1259;1003245;-65
2023/12/04 05:25:12;;;;;;;25.70;16.70;;;;;;;-2.42;85.22;100590.36;103035;1256;139834;-64
2023/12/04 05:27:39;;;;;;;23.20;15.20;;;;;;;-2.37;85.36;100586.39;101794;1259;1002890;-64
2023/12/04 05:30:07;;;;;;;24.90;17.50;;;;;;;-2.33;85.32;100588.73;103239;1254;139678;-64
2023/12/04 05:32:34;;;;;;;22.70;16.60;;;;;;;-2.30;85.08;100586.77;102861;1258;1003370;-65
2023/12/04 05:35:01;;;;;;;25.40;17.80;;;;;;;-2.29;84.96;100581.66;103536;1254;110375;-64
2023/12/04 05:37:29;;;;;;;27.20;18.90;;;;;;;-2.22;85.16;100586.60;103121;1259;138173;-65
2023/12/04 05:39:56;;;;;;;28.50;19.20;;;;;;;-2.22;84.95;100588.66;103161;1260;97823;-65
2023/12/04 05:42:22;;;;;;;27.20;18.70;;;;;;;-2.20;84.92;100584.79;103191;1256;138524;-65
2023/12/04 05:44:50;;;;;;;30.20;19.50;;;;;;;-2.21;84.75;100586.97;103329;1255;97689;-65
2023/12/04 05:47:16;;;;;;;28.70;18.70;;;;;;;-2.26;84.90;100586.69;103327;1254;111213;-66
2023/12/04 05:49:43;;;;;;;25.80;17.70;;;;;;;-2.30;84.72;100588.30;103151;1254;138917;-65
2023/12/04 05:52:10;;;;;;;26.40;18.30;;;;;;;-2.34;84.61;100589.02;102620;1254;1002892;-66
2023/12/04 05:54:37;;;;;;;23.10;16.10;;;;;;;-2.38;84.93;100589.61;102462;1258;1016641;-66
2023/12/04 05:57:04;;;;;;;23.40;16.60;;;;;;;-2.38;84.82;100596.08;103092;1254;1002863;-65
2023/12/04 05:59:31;;;;;;;24.40;16.70;;;;;;;-2.38;84.86;100598.30;103810;1256;139004;-66
2023/12/04 06:01:58;;;;;;;26.50;17.60;;;;;;;-2.36;85.12;100601.75;103493;1254;106744;-66
2023/12/04 06:04:25;;;;;;;26.70;18.10;;;;;;;-2.33;84.89;100603.71;103345;1259;98016;-66
2023/12/04 06:06:52;;;;;;;26.30;18.30;;;;;;;-2.27;85.02;100603.88;103107;1254;138026;-66
2023/12/04 06:09:19;;;;;;;27.20;18.90;;;;;;;-2.25;84.96;100601.70;102506;1254;1003253;-66
2023/12/04 06:11:46;;;;;;;30.50;18.90;;;;;;;-2.23;84.99;100602.79;103174;1254;138390;-66
2023/12/04 06:14:14;;;;;;;29.30;19.40;;;;;;;-2.21;84.51;100607.77;103302;1259;108081;-66
2023/12/04 06:16:41;;;;;;;31.50;20.80;;;;;;;-2.23;84.65;100604.80;102528;1259;1002584;-67
2023/12/04 06:19:07;;;;;;;29.50;20.30;;;;;;;-2.31;84.40;100603.78;103542;1256;138186;-65
2023/12/04 06:21:34;;;;;;;29.00;19.10;;;;;;;-2.36;84.27;100613.51;103316;1259;97811;-66
2023/12/04 06:24:03;;;;;;;30.30;20.00;;;;;;;-2.38;84.77;100616.34;103765;1256;138875;-66
2023/12/04 06:26:36;;;;;;;31.70;19.10;;;;;;;-2.39;84.77;100613.25;103516;1254;107529;-67
2023/12/04 06:29:04;;;;;;;38.10;23.30;;;;;;;-2.39;84.64;100611.90;103179;1258;97899;-64
2023/12/04 06:31:33;;;;;;;30.10;20.40;;;;;;;-2.30;86.78;100614.86;103728;1254;1002862;-64
2023/12/04 06:34:01;;;;;;;26.40;18.30;;;;;;;-2.19;86.68;100615.47;103399;1259;97798;-67
2023/12/04 06:36:32;;;;;;;27.10;18.80;;;;;;;-2.13;85.92;100611.90;102339;1258;1003254;-68
2023/12/04 06:39:03;;;;;;;29.50;19.20;;;;;;;-2.07;85.74;100617.64;103226;1256;108951;-68
2023/12/04 06:41:31;;;;;;;31.00;20.60;;;;;;;-2.05;84.94;100621.12;103100;1254;138774;-68
2023/12/04 06:43:59;;;;;;;28.30;20.10;;;;;;;-2.05;84.93;100620.42;103197;1254;106549;-68
2023/12/04 06:46:28;;;;;;;32.80;21.90;;;;;;;-2.11;84.37;100611.59;102484;1254;1002625;-68
2023/12/04 06:48:57;;;;;;;30.00;20.90;;;;;;;-2.10;84.19;100616.91;103163;1254;138226;-68
2023/12/04 06:51:25;;;;;;;34.70;22.30;;;;;;;-2.14;84.26;100618.17;103238;1254;106964;-67
2023/12/04 06:53:52;;;;;;;31.30;20.70;;;;;;;-2.16;84.41;100620.67;103251;1254;138243;-67
2023/12/04 06:56:19;;;;;;;32.60;20.90;;;;;;;-2.19;84.45;100620.91;103263;1258;105970;-66
2023/12/04 06:58:46;;;;;;;30.70;20.30;;;;;;;-2.20;84.39;100621.06;101783;1254;1003183;-68
2023/12/04 07:01:13;;;;;;;34.00;21.30;;;;;;;-2.20;84.60;100624.65;101606;1254;1003007;-68
2023/12/04 07:03:41;;;;;;;27.60;18.80;;;;;;;-2.14;84.75;100624.14;102426;1258;1002864;-68
2023/12/04 07:06:11;;;;;;;31.10;19.50;;;;;;;-2.07;84.63;100620.89;102412;1254;1003111;-66
2023/12/04 07:08:38;;;;;;;32.00;19.70;;;;;;;-2.02;84.67;100616.06;102585;1257;1005549;-67
2023/12/04 07:11:07;;;;;;;29.50;19.90;;;;;;;-1.97;84.43;100617.75;102580;1259;1003724;-67
2023/12/04 07:13:34;;;;;;;33.70;22.10;;;;;;;-1.97;84.20;100616.36;103457;1254;139858;-67
2023/12/04 07:16:02;;;;;;;34.00;22.40;;;;;;;-1.93;84.37;100618.51;103274;1254;107899;-67
2023/12/04 07:18:29;;;;;;;39.70;24.00;;;;;;;-1.87;84.29;100626.33;103744;1254;138813;-67
2023/12/04 07:20:56;;;;;;;35.00;22.90;;;;;;;-1.87;84.31;100632.80;103820;1257;107554;-66
2023/12/04 07:23:23;;;;;;;38.00;24.20;;;;;;;-1.83;84.30;100630.15;101817;1256;1003458;-67
2023/12/04 07:25:53;;;;;;;35.40;23.50;;;;;;;-1.82;84.05;100634.79;103302;1258;111943;-67
2023/12/04 07:28:20;;;;;;;36.20;23.70;;;;;;;-1.86;83.62;100631.45;102523;1254;1003049;-66
2023/12/04 07:30:47;;;;;;;37.20;24.30;;;;;;;-1.89;83.90;100638.20;103437;1254;139114;-67
2023/12/04 07:33:15;;;;;;;35.60;22.70;;;;;;;-1.91;83.51;100638.50;103313;1254;107864;-65
2023/12/04 07:35:42;;;;;;;33.90;23.50;;;;;;;-1.92;84.12;100641.55;102319;1254;1002968;-67
2023/12/04 07:38:09;;;;;;;34.90;22.60;;;;;;;-1.92;83.93;100639.34;102502;1254;1003014;-67
2023/12/04 07:40:36;;;;;;;35.70;23.00;;;;;;;-1.91;83.79;100637.66;103276;1254;107794;-68
2023/12/04 07:43:03;;;;;;;35.50;22.90;;;;;;;-1.85;84.18;100636.59;103158;1254;138899;-67
2023/12/04 07:45:30;;;;;;;40.00;24.60;;;;;;;-1.79;83.89;100637.43;102492;1254;1003516;-68
2023/12/04 07:47:57;;;;;;;36.40;22.70;;;;;;;-1.73;83.72;100638.76;103071;1254;139479;-67
2023/12/04 07:50:25;;;;;;;35.70;23.20;;;;;;;-1.65;83.79;100635.69;103247;1258;111331;-67
2023/12/04 07:52:52;;;;;;;37.80;24.20;;;;;;;-1.59;83.76;100634.84;103254;1258;107220;-67
2023/12/04 07:55:19;;;;;;;39.20;25.40;;;;;;;-1.51;83.60;100637.06;103166;1254;139730;-67
2023/12/04 07:57:47;;;;;;;40.40;26.00;;;;;;;-1.48;83.50;100636.61;103250;1254;108281;-67
2023/12/04 08:00:17;;;;;;;36.00;24.80;;;;;;;-1.47;83.28;100638.67;103196;1258;139705;-67
2023/12/04 08:02:45;;;;;;;39.70;26.00;;;;;;;-1.46;83.16;100640.05;103559;1254;110338;-67
2023/12/04 08:05:12;;;;;;;41.00;27.20;;;;;;;-1.50;82.82;100642.52;103236;1258;108652;-67
2023/12/04 08:07:40;;;;;;;35.70;24.40;;;;;;;-1.59;82.57;100645.25;101795;1254;1003149;-67
2023/12/04 08:10:09;;;;;;;38.00;24.40;;;;;;;-1.64;82.68;100649.71;103207;1255;108970;-67
2023/12/04 08:12:35;;;;;;;34.90;22.80;;;;;;;-1.67;82.62;100652.88;103311;1258;138842;-68
2023/12/04 08:15:06;;;;;;;37.10;23.70;;;;;;;-1.67;82.87;100655.09;103171;1257;110988;-68
2023/12/04 08:17:37;;;;;;;38.00;23.40;;;;;;;-1.64;83.17;100652.27;103045;1257;138806;-69
2023/12/04 08:20:06;;;;;;;34.60;22.60;;;;;;;-1.60;83.24;100658.00;103240;1258;97904;-68
2023/12/04 08:22:33;;;;;;;34.90;22.40;;;;;;;-1.58;83.02;100657.38;103174;1258;107503;-67
2023/12/04 08:25:00;;;;;;;37.20;24.60;;;;;;;-1.56;82.57;100656.55;102897;1256;138976;-68
2023/12/04 08:27:27;;;;;;;38.50;23.20;;;;;;;-1.58;82.49;100654.98;103177;1254;110847;-67
2023/12/04 08:29:53;;;;;;;36.30;25.00;;;;;;;-1.59;82.53;100656.33;103081;1254;139486;-68
2023/12/04 08:32:22;;;;;;;37.80;25.00;;;;;;;-1.56;82.83;100660.31;103204;1254;98818;-68
2023/12/04 08:34:49;;;;;;;37.50;25.00;;;;;;;-1.57;82.67;100655.51;103212;1254;108280;-67
2023/12/04 08:37:16;;;;;;;38.10;25.20;;;;;;;-1.54;82.69;100662.92;103177;1253;138085;-66
2023/12/04 08:39:43;;;;;;;37.30;24.20;;;;;;;-1.51;82.71;100665.36;103313;1254;111915;-69
2023/12/04 08:42:10;;;;;;;35.90;22.90;;;;;;;-1.51;82.55;100667.07;103098;1254;138930;-68
2023/12/04 08:44:47;;;;;;;;;;;;;;;-1.54;82.30;100666.00;103267;1258;97869;-67
2023/12/04 08:47:14;;;;;;;35.40;20.30;;;;;;;-1.58;82.17;100674.41;102444;1258;1003387;-67
2023/12/04 08:49:42;;;;;;;34.40;21.80;;;;;;;-1.59;82.07;100672.85;101564;1258;1003445;-66
2023/12/04 08:52:15;;;;;;;34.10;22.00;;;;;;;-1.61;82.12;100676.38;103247;1254;111447;-67
2023/12/04 08:54:42;;;;;;;34.10;22.20;;;;;;;-1.57;82.39;100674.27;102982;1257;137990;-67
2023/12/04 08:57:09;;;;;;;37.80;22.90;;;;;;;-1.53;82.23;100681.00;103218;1254;98302;-68
2023/12/04 08:59:37;;;;;;;35.90;22.90;;;;;;;-1.55;81.98;100677.22;103129;1254;138183;-67
2023/12/04 09:02:04;;;;;;;36.00;23.40;;;;;;;-1.57;81.91;100678.88;103761;1254;97591;-67
2023/12/04 09:04:31;;;;;;;38.60;25.40;;;;;;;-1.59;81.77;100681.56;103300;1254;111412;-67
2023/12/04 09:07:00;;;;;;;37.70;24.40;;;;;;;-1.59;81.75;100686.33;102301;1258;1002559;-67
2023/12/04 09:09:30;;;;;;;41.40;25.70;;;;;;;-1.60;81.65;100686.81;101766;1259;1003657;-67
2023/12/04 09:11:57;;;;;;;37.80;24.20;;;;;;;-1.62;81.75;100685.54;101607;1254;1003732;-68
2023/12/04 09:14:24;;;;;;;40.00;24.50;;;;;;;-1.61;81.77;100685.79;102457;1254;1003407;-67
2023/12/04 09:16:51;;;;;;;36.20;22.30;;;;;;;-1.59;81.74;100684.29;103203;1254;111008;-66
2023/12/04 09:19:18;;;;;;;37.90;21.20;;;;;;;-1.57;81.84;100680.92;103077;1254;138636;-66
2023/12/04 09:21:45;;;;;;;36.60;22.50;;;;;;;-1.52;81.92;100679.66;103721;1254;1014080;-67
2023/12/04 09:24:13;;;;;;;34.30;22.00;;;;;;;-1.45;81.91;100681.02;104515;1254;139130;-66
2023/12/04 09:26:40;;;;;;;34.90;22.20;;;;;;;-1.38;81.80;100677.95;104661;1256;95703;-66
2023/12/04 09:29:07;;;;;;;38.00;24.00;;;;;;;-1.34;81.60;100681.95;104374;1256;111318;-66
2023/12/04 09:31:35;;;;;;;35.20;23.60;;;;;;;-1.32;81.48;100680.81;103191;1255;139737;-66
2023/12/04 09:34:01;;;;;;;36.70;23.80;;;;;;;-1.29;81.40;100679.52;103450;1254;99482;-67
2023/12/04 09:36:29;;;;;;;43.80;26.90;;;;;;;-1.31;81.30;100681.34;103324;1254;138993;-65
2023/12/04 09:38:56;;;;;;;46.30;27.40;;;;;;;-1.34;81.02;100673.59;103201;1259;97807;-66
2023/12/04 09:41:23;;;;;;;44.10;27.40;;;;;;;-1.39;81.00;100671.29;103213;1254;110781;-66
2023/12/04 09:43:52;;;;;;;37.10;23.90;;;;;;;-1.42;81.13;100671.90;102795;1254;1003297;-66
2023/12/04 09:46:20;;;;;;;35.70;22.20;;;;;;;-1.45;81.06;100674.35;103233;1254;1003122;-66
2023/12/04 09:48:47;;;;;;;35.40;20.90;;;;;;;-1.49;81.19;100674.62;102293;1259;1003690;-66
2023/12/04 09:51:15;;;;;;;30.40;19.40;;;;;;;-1.49;81.38;100674.61;104192;1254;96409;-67
2023/12/04 09:53:42;;;;;;;31.00;20.30;;;;;;;-1.52;81.22;100672.34;102991;1259;139737;-67
2023/12/04 09:56:12;;;;;;;32.30;20.70;;;;;;;-1.53;80.99;100672.13;103095;1259;107201;-66
2023/12/04 09:58:42;;;;;;;35.20;22.60;;;;;;;-1.51;81.29;100673.38;103956;1258;97644;-67
2023/12/04 10:01:10;;;;;;;38.40;23.40;;;;;;;-1.46;81.50;100676.72;104509;1254;138558;-68
2023/12/04 10:03:37;;;;;;;34.30;23.00;;;;;;;-1.41;81.40;100671.73;103403;1254;97672;-67
2023/12/04 10:06:05;;;;;;;38.60;24.30;;;;;;;-1.38;81.29;100672.48;102699;1254;1016033;-65
2023/12/04 10:08:32;;;;;;;37.30;24.60;;;;;;;-1.34;81.11;100673.94;103854;1254;1002844;-65
2023/12/04 10:11:01;;;;;;;40.90;24.40;;;;;;;-1.30;81.17;100668.73;103197;1254;1002585;-67
2023/12/04 10:13:27;;;;;;;37.70;24.50;;;;;;;-1.30;81.20;100666.02;103357;1254;139200;-67
2023/12/04 10:16:14;;;;;;;37.20;23.10;;;;;;;-1.30;80.88;100666.20;103184;1254;97688;-66
2023/12/04 10:18:42;;;;;;;35.70;22.00;;;;;;;-1.26;80.79;100662.85;102507;1254;1002501;-65
2023/12/04 10:21:09;;;;;;;38.90;22.30;;;;;;;-1.22;80.89;100665.02;103091;1257;1002940;-65
2023/12/04 10:23:46;;;;;;;36.80;21.80;;;;;;;-1.14;80.78;100658.52;103289;1256;1002673;-66
2023/12/04 10:26:16;;;;;;;33.90;21.60;;;;;;;-1.09;80.74;100659.14;103754;1255;108144;-65
2023/12/04 10:29:02;;;;;;;35.90;22.50;;;;;;;-1.04;80.64;100658.23;103820;1258;96434;-64
2023/12/04 10:31:32;;;;;;;37.50;22.80;;;;;;;-0.97;80.40;100652.74;103381;1258;138498;-67
2023/12/04 10:33:59;;;;;;;37.10;22.70;;;;;;;-0.93;80.40;100651.10;103124;1255;107083;-68
2023/12/04 10:36:26;;;;;;;37.60;23.60;;;;;;;-0.89;80.11;100649.50;102236;1257;1003567;-67
2023/12/04 10:39:04;;;;;;;38.70;23.40;;;;;;;-0.91;80.33;100640.25;102447;1254;1002685;-67
2023/12/04 10:41:32;;;;;;;36.90;23.20;;;;;;;-0.84;79.92;100649.08;102841;1256;139215;-67
2023/12/04 10:44:00;;;;;;;38.00;23.60;;;;;;;-0.80;80.04;100652.23;102441;1259;1002645;-68
2023/12/04 10:46:37;;;;;;;40.60;24.60;;;;;;;-0.74;80.15;100647.40;103135;1254;108319;-68
2023/12/04 10:49:05;;;;;;;43.10;25.30;;;;;;;-0.66;80.23;100657.83;103317;1254;137954;-68
2023/12/04 10:51:33;;;;;;;38.90;23.20;;;;;;;-0.57;80.16;100652.00;103871;1254;1002443;-67
2023/12/04 10:54:00;;;;;;;37.90;23.40;;;;;;;-0.50;79.92;100655.05;103041;1259;139543;-68